Time;durP1;ratioP1;P1;durP2;ratioP2;P2;SDS_P1;SDS_P2;PMS_P1;PMS_P2;Temp;Humidity;BMP_temperature;BMP_pressure;BME280_temperature;BME280_humidity;BME280_pressure;Samples;Min_cycle;Max_cycle;Signal;HPM_P1;HPM_P2
2021/08/10 00:02:14;;;;;;;5.03;4.50;;;15.40;99.90;;;;;;5129616;28;20444;-83
2021/08/10 00:04:41;;;;;;;8.30;4.80;;;15.40;99.90;;;;;;5123581;28;20467;-82
2021/08/10 00:07:10;;;;;;;4.90;4.40;;;15.60;99.90;;;;;;5124005;28;20447;-84
2021/08/10 00:09:37;;;;;;;4.37;3.97;;;15.30;99.90;;;;;;5123469;28;20455;-81
2021/08/10 00:12:05;;;;;;;5.10;3.80;;;15.40;99.90;;;;;;5122658;28;20455;-82
2021/08/10 00:14:32;;;;;;;4.53;4.07;;;15.80;99.90;;;;;;5127758;28;20473;-84
2021/08/10 00:16:59;;;;;;;5.23;4.60;;;15.30;99.90;;;;;;5128579;28;20483;-81
2021/08/10 00:19:26;;;;;;;6.00;3.77;;;15.40;99.90;;;;;;5120879;28;20930;-83
2021/08/10 00:21:55;;;;;;;4.30;3.90;;;15.30;99.90;;;;;;5119789;28;20459;-82
2021/08/10 00:24:23;;;;;;;4.60;3.90;;;15.30;99.90;;;;;;5119730;28;20478;-83
2021/08/10 00:26:50;;;;;;;3.90;3.57;;;15.30;99.90;;;;;;5119532;28;20428;-84
2021/08/10 00:29:19;;;;;;;4.07;3.77;;;15.30;99.90;;;;;;5119275;28;20537;-83
2021/08/10 00:31:46;;;;;;;5.37;4.07;;;15.40;99.90;;;;;;5120661;28;20479;-83
2021/08/10 00:34:13;;;;;;;5.33;4.83;;;15.30;99.90;;;;;;5130201;28;20481;-81
2021/08/10 00:36:40;;;;;;;3.70;3.40;;;15.30;99.90;;;;;;5133829;28;20902;-80
2021/08/10 00:39:08;;;;;;;4.37;4.07;;;15.10;99.90;;;;;;5135460;28;20467;-83
2021/08/10 00:41:36;;;;;;;3.60;3.30;;;15.30;99.90;;;;;;5125552;28;20508;-83
2021/08/10 00:44:04;;;;;;;4.80;3.80;;;15.20;99.90;;;;;;5126527;28;20478;-82
2021/08/10 00:46:31;;;;;;;7.07;4.00;;;15.20;99.90;;;;;;5125167;28;20459;-81
2021/08/10 00:48:58;;;;;;;5.10;4.10;;;15.20;99.90;;;;;;5128071;28;20447;-81
2021/08/10 00:51:27;;;;;;;4.77;4.27;;;15.30;99.90;;;;;;5134673;28;20451;-80
2021/08/10 00:53:53;;;;;;;4.80;4.27;;;15.20;99.90;;;;;;5131213;28;20475;-79
2021/08/10 00:56:36;;;;;;;;;;;;;;;;;;;;;
2021/08/10 00:59:42;;;;;;;5.97;3.40;;;15.20;99.90;;;;;;5128879;28;20470;-82
2021/08/10 01:02:29;;;;;;;4.63;3.30;;;15.20;99.90;;;;;;5122946;28;20436;-82
2021/08/10 01:05:20;;;;;;;4.30;3.50;;;14.50;99.90;;;;;;5144329;22;20505;-79
2021/08/10 01:08:36;;;;;;;4.07;3.83;;;15.20;99.90;;;;;;5135868;28;20570;-78
2021/08/10 01:11:27;;;;;;;6.53;4.67;;;15.00;99.90;;;;;;5140831;28;20474;-79
2021/08/10 01:14:05;;;;;;;5.00;4.53;;;14.70;99.90;;;;;;5135568;28;20958;-78
2021/08/10 01:20:48;;;;;;;4.23;3.83;;;14.20;99.90;;;;;;5074127;28;20455;-79
2021/08/10 01:23:29;;;;;;;3.70;3.40;;;14.90;99.90;;;;;;5115346;28;20489;-78
2021/08/10 01:29:31;;;;;;;5.47;5.00;;;14.10;99.90;;;;;;5114283;28;20446;-79
2021/08/10 01:32:32;;;;;;;5.50;5.00;;;15.00;99.90;;;;;;5115383;28;20809;-79
2021/08/10 01:35:42;;;;;;;9.10;4.50;;;15.10;99.90;;;;;;5109968;28;20493;-80
2021/08/10 01:38:34;;;;;;;4.83;4.43;;;15.10;99.90;;;;;;5033593;28;20479;-79
2021/08/10 01:41:24;;;;;;;4.90;4.53;;;15.10;99.90;;;;;;5034581;28;20838;-78
2021/08/10 01:47:54;;;;;;;4.57;3.80;;;15.20;99.90;;;;;;5010874;28;20439;-79
2021/08/10 01:53:58;;;;;;;5.20;4.20;;;15.10;99.90;;;;;;5092727;28;20447;-79
2021/08/10 01:56:42;;;;;;;5.00;4.60;;;14.60;99.90;;;;;;5119359;28;20447;-80
2021/08/10 01:59:22;;;;;;;5.40;4.53;;;16.40;99.90;;;;;;5119679;28;20463;-79
2021/08/10 02:02:05;;;;;;;6.17;4.10;;;14.90;99.90;;;;;;5118954;28;20431;-80
2021/08/10 02:13:34;;;;;;;5.27;4.77;;;;;;;;;;5109184;28;20538;-79
2021/08/10 02:16:38;;;;;;;5.60;4.90;;;14.80;99.90;;;;;;5118783;28;20466;-79
2021/08/10 02:19:08;;;;;;;5.17;4.77;;;;;;;;;;5114124;28;20479;-79
2021/08/10 02:21:59;;;;;;;7.80;5.03;;;14.70;99.90;;;;;;5117465;28;20443;-79
2021/08/10 02:24:54;;;;;;;9.40;5.30;;;14.80;99.90;;;;;;5113926;28;20467;-78
2021/08/10 02:28:29;;;;;;;4.60;4.20;;;15.70;99.90;;;;;;5103958;28;20432;-78
2021/08/10 02:34:45;;;;;;;5.50;4.60;;;15.80;99.90;;;;;;4945252;28;20537;-77
2021/08/10 02:37:40;;;;;;;8.83;5.00;;;14.80;99.90;;;;;;4962702;28;20462;-78
2021/08/10 02:40:39;;;;;;;4.70;4.27;;;14.80;99.90;;;;;;5037338;28;20420;-78
2021/08/10 02:46:06;;;;;;;4.90;3.57;;;14.70;99.90;;;;;;5038110;28;20432;-79
2021/08/10 02:48:53;;;;;;;5.10;4.60;;;14.50;99.90;;;;;;5037955;28;20439;-78
2021/08/10 02:51:28;;;;;;;4.90;4.50;;;16.40;99.90;;;;;;5038986;28;20446;-78
2021/08/10 02:54:46;;;;;;;;;;;;;;;;;;;;;
2021/08/10 03:01:12;;;;;;;4.90;4.50;;;14.80;99.90;;;;;;5083083;28;20959;-78
2021/08/10 03:03:51;;;;;;;5.53;4.23;;;;;;;;;;5118581;28;20781;-79
2021/08/10 03:07:04;;;;;;;5.30;4.80;;;14.80;99.90;;;;;;5117204;28;20450;-79
2021/08/10 03:09:50;;;;;;;8.80;4.73;;;15.20;99.90;;;;;;5116816;28;20807;-79
2021/08/10 03:12:28;;;;;;;7.20;5.13;;;14.80;99.90;;;;;;5118154;28;20456;-79
2021/08/10 03:15:05;;;;;;;6.03;5.33;;;16.30;99.90;;;;;;5117841;28;20455;-79
2021/08/10 03:17:43;;;;;;;5.57;5.07;;;14.70;99.90;;;;;;5117059;28;20441;-79
2021/08/10 03:20:24;;;;;;;6.00;5.50;;;15.00;99.90;;;;;;5121257;28;20430;-78
2021/08/10 03:23:01;;;;;;;6.27;5.67;;;14.60;99.90;;;;;;5121889;28;20406;-78
2021/08/10 03:25:39;;;;;;;6.43;5.67;;;14.60;99.90;;;;;;5119995;28;21005;-78
2021/08/10 03:28:12;;;;;;;5.80;4.70;;;16.80;99.90;;;;;;5117801;28;20440;-79
2021/08/10 03:30:51;;;;;;;6.20;5.60;;;14.60;99.90;;;;;;5117690;28;20428;-79
2021/08/10 03:33:34;;;;;;;6.83;6.23;;;14.50;99.90;;;;;;5117304;28;20830;-79
2021/08/10 03:39:32;;;;;;;7.90;5.53;;;14.60;99.90;;;;;;5109815;28;20513;-79
2021/08/10 03:42:42;;;;;;;6.73;6.10;;;14.60;99.90;;;;;;5115907;28;20934;-79
2021/08/10 03:45:29;;;;;;;6.70;5.90;;;14.30;99.90;;;;;;5098141;28;20475;-79
2021/08/10 03:48:12;;;;;;;7.07;6.47;;;14.60;99.90;;;;;;5116691;28;20451;-79
2021/08/10 03:51:10;;;;;;;6.43;5.83;;;14.60;99.90;;;;;;5115779;28;20971;-79
2021/08/10 03:54:14;;;;;;;6.27;5.67;;;14.60;99.90;;;;;;5014236;28;20510;-79
2021/08/10 03:59:38;;;;;;;8.23;6.73;;;;;;;;;;4960569;29;20505;-79
2021/08/10 04:12:45;;;;;;;7.60;6.10;;;14.00;99.90;;;;;;4855689;29;20459;-78
2021/08/10 04:40:48;;;;;;;7.30;6.60;;;14.70;99.90;;;;;;5137223;22;20543;-81
2021/08/10 04:43:41;;;;;;;8.97;5.90;;;15.70;99.90;;;;;;5114816;27;20448;-83
2021/08/10 04:46:20;;;;;;;9.57;6.03;;;14.70;99.90;;;;;;5138911;27;20462;-83
2021/08/10 04:48:57;;;;;;;8.57;5.60;;;14.80;99.90;;;;;;5137983;27;20468;-84
2021/08/10 04:51:37;;;;;;;9.80;6.10;;;14.80;99.90;;;;;;5119346;28;20416;-81
2021/08/10 04:54:16;;;;;;;6.17;5.53;;;14.40;99.90;;;;;;5119641;28;20504;-81
2021/08/10 04:56:50;;;;;;;6.10;5.00;;;14.90;99.90;;;;;;5119894;28;20508;-81
2021/08/10 04:59:17;;;;;;;5.47;4.90;;;;;;;;;;5118410;28;20479;-81
2021/08/10 05:01:44;;;;;;;9.03;5.57;;;14.90;99.90;;;;;;5118746;28;20443;-81
2021/08/10 05:04:16;;;;;;;8.93;5.50;;;15.10;99.90;;;;;;5118586;28;20936;-80
2021/08/10 05:06:59;;;;;;;5.53;5.13;;;14.90;99.90;;;;;;5119370;28;20495;-81
2021/08/10 05:09:40;;;;;;;5.20;4.70;;;15.00;99.90;;;;;;5118897;28;20966;-83
2021/08/10 05:12:21;;;;;;;6.20;5.70;;;15.00;99.90;;;;;;5121120;28;20466;-81
2021/08/10 05:14:53;;;;;;;5.70;4.63;;;15.10;99.90;;;;;;5126628;28;20447;-81
2021/08/10 05:17:21;;;;;;;5.93;5.23;;;14.90;99.90;;;;;;5136593;28;20435;-81
2021/08/10 05:19:48;;;;;;;10.73;5.00;;;15.10;99.90;;;;;;5138002;28;20482;-81
2021/08/10 05:22:18;;;;;;;7.40;5.10;;;;;;;;;;5133129;28;20435;-82
2021/08/10 05:24:56;;;;;;;5.43;4.63;;;15.20;99.90;;;;;;5131014;28;20431;-82
2021/08/10 05:27:50;;;;;;;9.17;4.83;;;15.20;99.90;;;;;;5132282;28;20500;-82
2021/08/10 05:30:17;;;;;;;5.00;4.60;;;15.20;99.90;;;;;;5127759;28;20470;-82
2021/08/10 05:32:53;;;;;;;4.83;4.43;;;15.20;99.90;;;;;;5124042;28;20443;-82
2021/08/10 05:35:23;;;;;;;4.57;4.17;;;;;;;;;;5127086;28;20450;-82
2021/08/10 05:41:41;;;;;;;7.30;5.10;;;15.30;99.90;;;;;;5159056;22;20478;-81
2021/08/10 05:44:41;;;;;;;5.80;5.13;;;15.30;99.90;;;;;;5095552;27;20439;-81
2021/08/10 05:47:15;;;;;;;7.03;4.70;;;15.40;99.90;;;;;;5157047;27;20456;-81
2021/08/10 05:49:42;;;;;;;5.83;5.33;;;;;;;;;;5143775;27;20567;-81
2021/08/10 05:52:45;;;;;;;9.40;6.17;;;15.50;99.90;;;;;;5159510;22;20471;-85
2021/08/10 06:02:31;;;;;;;5.90;5.10;;;15.60;99.90;;;;;;5050522;28;20488;-85
2021/08/10 06:04:59;;;;;;;6.00;4.80;;;15.90;99.90;;;;;;5071740;28;20519;-85
2021/08/10 06:08:00;;;;;;;4.73;4.33;;;15.90;99.90;;;;;;5120540;28;20436;-85
2021/08/10 06:13:14;;;;;;;5.43;4.93;;;;;;;;;;5118171;28;20524;-85
2021/08/10 06:15:57;;;;;;;7.93;5.63;;;;;;;;;;5118417;28;20454;-85
2021/08/10 06:18:32;;;;;;;5.40;5.00;;;16.20;99.90;;;;;;5120819;28;20512;-85
2021/08/10 06:21:18;;;;;;;5.90;4.83;;;16.20;99.90;;;;;;5119784;28;20467;-84
2021/08/10 06:23:53;;;;;;;6.90;5.27;;;16.30;99.90;;;;;;5120734;28;20918;-85
2021/08/10 06:29:29;;;;;;;8.47;5.30;;;15.90;99.90;;;;;;5119355;28;20444;-85
2021/08/10 06:32:04;;;;;;;5.83;5.30;;;16.50;99.90;;;;;;5116301;28;20494;-85
2021/08/10 06:34:35;;;;;;;5.50;4.27;;;;;;;;;;5119964;28;20440;-86
2021/08/10 06:37:07;;;;;;;5.00;4.40;;;16.70;99.90;;;;;;5118490;28;20428;-85
2021/08/10 06:39:37;;;;;;;6.03;4.00;;;16.70;99.90;;;;;;5118031;28;20496;-86
2021/08/10 06:42:06;;;;;;;4.80;4.40;;;;;;;;;;5111607;28;20535;-86
2021/08/10 06:44:36;;;;;;;4.00;3.60;;;;;;;;;;5117467;28;20448;-86
2021/08/10 06:47:08;;;;;;;5.63;4.37;;;17.00;99.90;;;;;;5120877;28;20459;-85
2021/08/10 06:49:39;;;;;;;6.73;5.97;;;;;;;;;;5120746;28;20459;-85
2021/08/10 06:52:31;;;;;;;5.30;4.80;;;17.10;99.90;;;;;;5120347;28;20480;-85
2021/08/10 06:57:43;;;;;;;5.47;4.97;;;17.30;99.90;;;;;;5119297;28;20454;-86
2021/08/10 07:00:10;;;;;;;6.93;5.90;;;17.40;99.90;;;;;;5117246;28;20483;-86
2021/08/10 07:02:40;;;;;;;6.83;4.67;;;;;;;;;;5117430;28;20452;-85
2021/08/10 07:08:31;;;;;;;4.97;4.47;;;17.80;99.90;;;;;;5118617;28;20458;-89
2021/08/10 07:11:24;;;;;;;3.83;3.60;;;18.10;99.90;;;;;;5120103;28;20466;-87
2021/08/10 07:14:27;;;;;;;3.90;3.53;;;18.10;99.90;;;;;;5120826;28;20440;-88
2021/08/10 07:19:49;;;;;;;4.70;3.20;;;;;;;;;;5116927;28;20431;-88
2021/08/10 07:22:16;;;;;;;4.50;3.90;;;;;;;;;;5119777;28;20457;-89
2021/08/10 07:27:44;;;;;;;6.63;4.10;;;;;;;;;;5093020;28;20452;-88
2021/08/10 07:30:30;;;;;;;3.87;3.53;;;18.50;99.90;;;;;;5119680;28;20480;-89
2021/08/10 07:32:57;;;;;;;4.67;3.73;;;;;;;;;;5119868;28;20456;-87
2021/08/10 07:35:39;;;;;;;4.40;3.30;;;18.50;99.90;;;;;;5120440;28;20425;-88
2021/08/10 07:38:32;;;;;;;4.63;3.70;;;18.40;99.90;;;;;;5119555;28;20474;-88
2021/08/10 07:44:17;;;;;;;3.47;3.13;;;18.70;99.90;;;;;;5117107;28;20465;-88
2021/08/10 07:47:50;;;;;;;5.20;3.93;;;18.70;99.90;;;;;;5105317;28;20452;-88
2021/08/10 07:50:35;;;;;;;9.23;3.40;;;19.20;99.90;;;;;;5104275;28;20471;-88
2021/08/10 07:53:38;;;;;;;4.97;3.80;;;18.80;99.90;;;;;;5104803;28;20994;-88
2021/08/10 07:59:34;;;;;;;3.53;3.23;;;18.80;99.90;;;;;;5104041;28;20497;-88
2021/08/10 08:02:25;;;;;;;4.80;4.30;;;17.70;99.90;;;;;;5104179;28;20506;-88
2021/08/10 08:08:10;;;;;;;4.20;3.80;;;18.90;99.90;;;;;;5102778;28;20930;-89
2021/08/10 08:14:38;;;;;;;4.37;3.97;;;18.90;99.90;;;;;;5209230;22;20565;-88
2021/08/10 08:21:15;;;;;;;5.90;4.67;;;19.00;99.90;;;;;;5143303;27;20498;-89
2021/08/10 08:24:20;;;;;;;4.10;3.43;;;20.70;99.90;;;;;;5087874;28;20468;-89
2021/08/10 08:27:50;;;;;;;6.20;4.67;;;18.90;99.90;;;;;;5102877;28;20474;-88
2021/08/10 08:54:03;;;;;;;9.00;3.70;;;19.20;99.90;;;;;;5454673;22;20555;-89
2021/08/10 10:01:59;;;;;;;4.43;3.60;;;20.50;99.90;;;;;;6166217;22;1204284;-88
2021/08/10 10:04:59;;;;;;;11.80;4.47;;;20.60;99.90;;;;;;6329522;22;20161;-88
2021/08/10 10:07:50;;;;;;;15.27;4.77;;;20.70;99.90;;;;;;6328032;22;20411;-88
2021/08/10 10:13:31;;;;;;;5.63;5.13;;;21.10;99.90;;;;;;6328438;22;20800;-88
2021/08/10 10:19:09;;;;;;;5.67;4.67;;;20.90;99.90;;;;;;6328563;22;20733;-88
2021/08/10 10:24:55;;;;;;;3.90;3.57;;;21.10;99.90;;;;;;6319750;22;20414;-88
2021/08/10 10:27:39;;;;;;;3.20;3.00;;;;;;;;;;6342442;22;20398;-87
2021/08/10 10:30:30;;;;;;;3.20;2.63;;;21.20;99.90;;;;;;6340840;22;20429;-87
2021/08/10 10:33:18;;;;;;;2.77;2.53;;;20.90;99.90;;;;;;6344372;22;20427;-88
2021/08/10 10:40:04;;;;;;;;;;;;;;;;;;;;;
2021/08/10 10:55:33;;;;;;;;;;;;;;;;;;;;;
2021/08/10 11:04:36;;;;;;;5.80;3.93;;;20.80;99.90;;;;;;6295588;22;20456;-82
2021/08/10 11:07:37;;;;;;;3.33;3.03;;;20.80;99.90;;;;;;6323641;22;20401;-82
2021/08/10 11:10:05;;;;;;;5.87;3.73;;;20.80;99.90;;;;;;6327951;22;20384;-81
2021/08/10 11:12:47;;;;;;;5.73;4.57;;;20.80;99.90;;;;;;6331115;22;20385;-82
2021/08/10 11:15:57;;;;;;;5.10;4.70;;;20.70;99.90;;;;;;6333304;22;20438;-80
2021/08/10 11:18:26;;;;;;;5.70;4.10;;;;;;;;;;6334944;22;20404;-82
2021/08/10 11:21:15;;;;;;;4.33;3.40;;;20.70;99.90;;;;;;6332199;22;20412;-82
2021/08/10 11:23:42;;;;;;;5.37;3.50;;;;;;;;;;6328082;22;20994;-83
2021/08/10 11:26:38;;;;;;;3.80;3.50;;;20.90;99.90;;;;;;6327295;22;20480;-82
2021/08/10 11:29:06;;;;;;;6.53;3.13;;;21.10;99.90;;;;;;6323932;22;20404;-81
2021/08/10 11:31:52;;;;;;;4.47;3.60;;;21.30;99.90;;;;;;6325107;22;20404;-82
2021/08/10 11:34:37;;;;;;;4.23;3.30;;;21.40;99.90;;;;;;6324708;22;20530;-82
2021/08/10 11:37:24;;;;;;;7.83;7.17;;;21.90;99.90;;;;;;6325633;22;20407;-83
2021/08/10 11:40:06;;;;;;;4.87;4.27;;;21.50;99.90;;;;;;6323075;22;20461;-81
2021/08/10 11:42:34;;;;;;;4.90;3.50;;;21.40;99.90;;;;;;6324162;22;20732;-83
2021/08/10 11:45:03;;;;;;;4.90;3.53;;;21.50;99.90;;;;;;6325924;22;20396;-83
2021/08/10 11:47:31;;;;;;;4.40;3.33;;;21.60;99.90;;;;;;6326586;22;20404;-81
2021/08/10 11:49:58;;;;;;;5.33;3.40;;;21.50;99.90;;;;;;6326868;22;20403;-81
2021/08/10 11:52:41;;;;;;;6.13;3.33;;;21.50;99.90;;;;;;6325969;22;20400;-81
2021/08/10 11:55:08;;;;;;;6.07;3.53;;;21.50;99.90;;;;;;6324865;22;20445;-82
2021/08/10 11:57:35;;;;;;;5.37;3.80;;;21.50;99.90;;;;;;6324202;22;20412;-82
2021/08/10 12:00:15;;;;;;;7.00;3.47;;;21.50;99.90;;;;;;6325602;22;20404;-82
2021/08/10 12:02:47;;;;;;;4.10;3.70;;;21.30;99.90;;;;;;6330454;22;20430;-81
2021/08/10 12:05:14;;;;;;;4.67;3.87;;;21.60;99.90;;;;;;6331967;22;20380;-82
2021/08/10 12:07:52;;;;;;;4.50;3.53;;;21.60;99.90;;;;;;6328657;22;20400;-82
2021/08/10 12:10:38;;;;;;;3.63;3.27;;;21.40;99.90;;;;;;6325086;22;20404;-82
2021/08/10 12:13:20;;;;;;;5.50;3.40;;;21.70;99.90;;;;;;6324435;22;20428;-83
2021/08/10 12:15:47;;;;;;;4.43;3.87;;;21.50;99.90;;;;;;6330270;22;20396;-83
2021/08/10 12:18:18;;;;;;;6.50;3.60;;;21.80;99.90;;;;;;6333078;22;20389;-82
2021/08/10 12:20:57;;;;;;;3.73;3.20;;;21.90;99.90;;;;;;6332464;22;20408;-82
2021/08/10 12:23:25;;;;;;;4.90;2.93;;;21.90;99.90;;;;;;6329980;22;20420;-82
2021/08/10 12:25:52;;;;;;;3.13;2.80;;;22.00;99.90;;;;;;6328588;22;20435;-82
2021/08/10 12:28:19;;;;;;;5.27;3.00;;;22.20;99.90;;;;;;6328277;22;20408;-81
2021/08/10 12:30:46;;;;;;;3.87;3.00;;;22.20;99.90;;;;;;6327900;22;20416;-81
2021/08/10 12:33:17;;;;;;;3.50;3.20;;;22.30;99.90;;;;;;6327438;22;20456;-82
2021/08/10 12:36:01;;;;;;;4.37;3.97;;;22.20;99.90;;;;;;6330210;22;20397;-82
2021/08/10 12:38:29;;;;;;;10.60;3.83;;;22.30;99.90;;;;;;6326743;22;20400;-82
2021/08/10 12:40:59;;;;;;;3.83;2.70;;;22.30;99.90;;;;;;6327963;22;20414;-82
2021/08/10 12:43:27;;;;;;;3.73;2.60;;;22.30;99.90;;;;;;6325239;22;20450;-82
2021/08/10 12:45:55;;;;;;;5.70;3.50;;;22.30;99.90;;;;;;6323289;22;20683;-81
2021/08/10 12:48:30;;;;;;;3.80;3.50;;;22.40;99.90;;;;;;6327279;22;20424;-82
2021/08/10 12:50:59;;;;;;;5.80;5.03;;;22.40;99.90;;;;;;6326756;22;20391;-81
2021/08/10 12:53:32;;;;;;;10.43;6.27;;;22.30;99.90;;;;;;6329747;22;20455;-81
2021/08/10 12:56:00;;;;;;;5.17;4.70;;;22.20;99.90;;;;;;6334618;22;20365;-81
2021/08/10 12:58:27;;;;;;;4.13;2.93;;;22.20;99.90;;;;;;6331284;22;20420;-81
2021/08/10 13:01:06;;;;;;;5.33;3.10;;;22.00;99.90;;;;;;6329228;22;20426;-82
2021/08/10 13:03:36;;;;;;;5.47;4.03;;;22.00;99.90;;;;;;6325392;22;20442;-81
2021/08/10 13:06:03;;;;;;;4.73;2.60;;;22.10;99.90;;;;;;6323946;22;20419;-82
2021/08/10 13:08:30;;;;;;;2.60;2.40;;;22.10;99.90;;;;;;6324679;22;20408;-82
2021/08/10 13:11:03;;;;;;;4.27;3.00;;;22.30;99.90;;;;;;6322933;22;20415;-81
2021/08/10 13:13:31;;;;;;;3.07;2.70;;;22.40;99.90;;;;;;6322391;22;20439;-82
2021/08/10 13:16:00;;;;;;;4.70;2.50;;;22.50;99.90;;;;;;6322457;22;20455;-83
2021/08/10 13:18:28;;;;;;;9.37;6.50;;;22.50;99.90;;;;;;6317747;22;20431;-83
2021/08/10 13:20:58;;;;;;;9.43;3.40;;;22.60;99.90;;;;;;6318688;22;20410;-83
2021/08/10 13:23:27;;;;;;;3.73;2.43;;;22.60;99.90;;;;;;6318022;22;20432;-83
2021/08/10 13:25:58;;;;;;;6.17;5.60;;;22.50;99.90;;;;;;6317084;22;20435;-83
2021/08/10 13:28:28;;;;;;;4.33;3.97;;;22.50;99.90;;;;;;6317406;22;20403;-82
2021/08/10 13:31:26;;;;;;;6.10;3.83;;;22.30;99.90;;;;;;6316370;22;20395;-83
2021/08/10 13:34:02;;;;;;;2.97;2.70;;;22.10;99.90;;;;;;6222429;23;20462;-83
2021/08/10 13:36:32;;;;;;;6.00;3.57;;;22.10;99.90;;;;;;6302309;22;20908;-83
2021/08/10 13:39:00;;;;;;;3.03;2.53;;;22.00;99.90;;;;;;6319455;22;20404;-83
2021/08/10 13:41:32;;;;;;;4.50;2.53;;;21.90;99.90;;;;;;6317176;22;20422;-82
2021/08/10 13:44:00;;;;;;;10.77;3.70;;;22.20;99.90;;;;;;6322683;22;20427;-82
2021/08/10 13:46:29;;;;;;;4.47;3.80;;;22.30;99.90;;;;;;6325272;22;20435;-83
2021/08/10 13:48:57;;;;;;;3.70;2.50;;;22.20;99.90;;;;;;6324135;22;20400;-83
2021/08/10 13:51:24;;;;;;;3.97;3.37;;;22.40;99.90;;;;;;6324410;22;20447;-82
2021/08/10 13:54:04;;;;;;;4.30;3.80;;;22.50;99.90;;;;;;6318314;22;20777;-84
2021/08/10 13:56:32;;;;;;;2.80;2.60;;;22.50;99.90;;;;;;6319356;22;20412;-82
2021/08/10 13:59:11;;;;;;;2.73;2.17;;;22.90;99.90;;;;;;6295284;22;20413;-81
2021/08/10 14:01:55;;;;;;;3.60;2.90;;;22.90;99.90;;;;;;6296537;22;20409;-82
2021/08/10 14:04:37;;;;;;;;;;;;;;;;;;;;;
2021/08/10 14:10:14;;;;;;;3.77;2.93;;;23.10;99.90;;;;;;6276686;22;20492;-83
2021/08/10 14:12:51;;;;;;;4.23;2.50;;;22.60;99.90;;;;;;6292173;22;20378;-84
2021/08/10 14:18:19;;;;;;;4.90;4.03;;;;;;;;;;6294628;22;20394;-83
2021/08/10 14:21:38;;;;;;;;;;;;;;;;;;;;;
2021/08/10 14:24:20;;;;;;;5.07;2.97;;;23.40;99.90;;;;;;6182888;23;20495;-81
2021/08/10 14:33:27;;;;;;;3.90;2.60;;;25.60;99.90;;;;;;6065910;23;20447;-81
2021/08/10 14:35:55;;;;;;;3.83;3.20;;;;;;;;;;6061107;23;20506;-77
2021/08/10 14:38:21;;;;;;;5.53;3.63;;;22.70;99.90;;;;;;6225590;22;20408;-77
2021/08/10 14:40:48;;;;;;;5.00;3.00;;;22.60;99.90;;;;;;6289687;22;20405;-77
2021/08/10 14:43:16;;;;;;;4.57;3.90;;;22.50;99.90;;;;;;6294257;22;20417;-77
2021/08/10 14:45:43;;;;;;;7.20;5.20;;;22.50;99.90;;;;;;6296629;22;20401;-77
2021/08/10 14:48:09;;;;;;;2.93;2.30;;;22.40;99.90;;;;;;6298343;22;20630;-77
2021/08/10 14:50:36;;;;;;;5.37;4.40;;;22.50;99.90;;;;;;6298309;22;20397;-77
2021/08/10 14:53:03;;;;;;;3.77;3.40;;;22.50;99.90;;;;;;6295806;22;20425;-78
2021/08/10 14:55:32;;;;;;;4.40;3.63;;;22.50;99.90;;;;;;6291367;22;20814;-77
2021/08/10 14:57:58;;;;;;;8.20;4.30;;;22.40;99.90;;;;;;6291715;22;20427;-77
2021/08/10 15:00:27;;;;;;;4.70;3.50;;;22.50;99.90;;;;;;6289655;22;20404;-80
2021/08/10 15:02:53;;;;;;;5.50;3.13;;;22.50;99.90;;;;;;6285960;22;20441;-77
2021/08/10 15:05:20;;;;;;;3.10;2.57;;;22.50;99.90;;;;;;6286927;22;20390;-78
2021/08/10 15:07:46;;;;;;;9.40;7.30;;;22.50;99.90;;;;;;6282339;22;20401;-78
2021/08/10 15:10:13;;;;;;;6.70;5.07;;;22.40;99.90;;;;;;6280400;22;20402;-77
2021/08/10 15:12:40;;;;;;;4.50;3.90;;;22.20;99.90;;;;;;6279707;22;20482;-78
2021/08/10 15:15:09;;;;;;;7.07;4.80;;;22.40;99.90;;;;;;6281594;22;20448;-79
2021/08/10 15:17:38;;;;;;;6.37;4.53;;;22.50;99.90;;;;;;6280503;22;20412;-78
2021/08/10 15:20:07;;;;;;;11.70;8.83;;;22.60;99.90;;;;;;6282408;22;20433;-77
2021/08/10 15:22:34;;;;;;;5.87;4.10;;;23.10;99.90;;;;;;6282134;22;20405;-78
2021/08/10 15:25:00;;;;;;;5.90;4.87;;;22.80;99.90;;;;;;6282528;22;20488;-78
2021/08/10 15:27:27;;;;;;;12.13;8.50;;;22.80;99.90;;;;;;6280809;22;20431;-78
2021/08/10 15:29:54;;;;;;;8.03;2.80;;;22.70;99.90;;;;;;6280017;22;20436;-78
2021/08/10 15:32:20;;;;;;;7.53;6.50;;;22.70;99.90;;;;;;6281182;22;20747;-80
2021/08/10 15:34:48;;;;;;;4.53;3.43;;;22.30;99.90;;;;;;6281331;22;20440;-81
2021/08/10 15:37:15;;;;;;;5.60;3.50;;;22.70;99.90;;;;;;6283884;22;20427;-80
2021/08/10 15:39:41;;;;;;;7.90;6.47;;;22.90;99.90;;;;;;6284196;22;20431;-80
2021/08/10 15:42:08;;;;;;;9.77;7.10;;;22.90;99.90;;;;;;6281874;22;20555;-79
2021/08/10 15:44:35;;;;;;;7.43;5.87;;;22.90;99.90;;;;;;6281659;22;20421;-80
2021/08/10 15:47:01;;;;;;;5.73;3.80;;;23.00;99.90;;;;;;6283859;22;20496;-77
2021/08/10 15:49:28;;;;;;;12.70;9.60;;;22.90;99.90;;;;;;6290873;22;20435;-79
2021/08/10 15:51:56;;;;;;;6.47;3.90;;;22.70;99.90;;;;;;6298796;22;20405;-79
2021/08/10 15:54:23;;;;;;;5.10;3.50;;;22.60;99.90;;;;;;6288012;22;20518;-79
2021/08/10 15:56:50;;;;;;;5.37;3.87;;;22.60;99.90;;;;;;6291680;22;20409;-79
2021/08/10 15:59:16;;;;;;;5.80;4.37;;;22.60;99.90;;;;;;6289396;22;20429;-77
2021/08/10 16:01:43;;;;;;;8.10;6.80;;;22.70;99.90;;;;;;6292278;22;20401;-78
2021/08/10 16:04:10;;;;;;;10.93;7.20;;;22.80;99.90;;;;;;6287036;22;20433;-80
2021/08/10 16:06:38;;;;;;;13.20;9.73;;;22.90;99.90;;;;;;6284296;22;20405;-80
2021/08/10 16:09:08;;;;;;;26.53;21.43;;;23.20;99.90;;;;;;6287317;22;20412;-81
2021/08/10 16:11:35;;;;;;;6.80;5.17;;;23.60;99.90;;;;;;6285000;22;20404;-79
2021/08/10 16:14:02;;;;;;;8.33;7.00;;;23.50;99.90;;;;;;6285942;22;20425;-79
2021/08/10 16:16:29;;;;;;;10.27;8.53;;;23.50;99.90;;;;;;6283365;22;20463;-79
2021/08/10 16:18:56;;;;;;;4.77;4.27;;;23.40;99.90;;;;;;6282572;22;20705;-80
2021/08/10 16:21:23;;;;;;;6.73;6.03;;;23.40;99.90;;;;;;6281510;22;20408;-80
2021/08/10 16:23:49;;;;;;;10.70;9.07;;;23.20;99.90;;;;;;6280147;22;20428;-80
2021/08/10 16:26:17;;;;;;;10.80;8.90;;;22.60;99.90;;;;;;6281573;22;20956;-78
2021/08/10 16:28:44;;;;;;;4.63;4.23;;;23.00;99.90;;;;;;6286015;22;20409;-78
2021/08/10 16:31:10;;;;;;;4.80;4.30;;;22.90;99.90;;;;;;6281969;22;20401;-81
2021/08/10 16:33:37;;;;;;;30.53;21.90;;;22.90;99.90;;;;;;6281610;22;20421;-81
2021/08/10 16:36:05;;;;;;;5.70;5.10;;;22.70;99.90;;;;;;6285059;22;20441;-80
2021/08/10 16:38:33;;;;;;;5.73;4.27;;;22.60;99.90;;;;;;6287027;22;20439;-80
2021/08/10 16:41:00;;;;;;;4.13;3.70;;;22.60;99.90;;;;;;6285958;22;20492;-79
2021/08/10 16:43:28;;;;;;;16.00;13.60;;;22.60;99.90;;;;;;6288807;22;20428;-79
2021/08/10 16:45:54;;;;;;;9.33;5.93;;;22.60;99.90;;;;;;6287289;22;20401;-79
2021/08/10 16:48:21;;;;;;;3.63;2.97;;;22.50;99.90;;;;;;6286651;22;20401;-79
2021/08/10 16:50:48;;;;;;;4.97;4.07;;;22.50;99.90;;;;;;6284378;22;20394;-80
2021/08/10 16:53:15;;;;;;;8.03;5.07;;;22.40;99.90;;;;;;6283122;22;20429;-80
2021/08/10 16:55:42;;;;;;;11.80;7.53;;;22.30;99.90;;;;;;6284693;22;21006;-81
2021/08/10 16:58:08;;;;;;;7.10;6.20;;;22.30;99.90;;;;;;6283561;22;20406;-81
2021/08/10 17:00:36;;;;;;;5.23;4.40;;;22.30;99.90;;;;;;6284345;22;20405;-81
2021/08/10 17:03:48;;;;;;;17.10;12.90;;;22.50;99.90;;;;;;6287892;22;20441;-82
2021/08/10 17:09:07;;;;;;;14.80;10.97;;;;;;;;;;6284279;22;20409;-86
2021/08/10 17:11:35;;;;;;;7.97;7.17;;;;;;;;;;6292321;22;20424;-86
2021/08/10 17:14:02;;;;;;;8.27;5.50;;;22.20;99.90;;;;;;6291985;22;20424;-85
2021/08/10 17:16:30;;;;;;;14.13;11.53;;;22.20;99.90;;;;;;6291725;22;20491;-85
2021/08/10 17:18:57;;;;;;;15.70;11.10;;;22.20;99.90;;;;;;6290889;22;20409;-85
2021/08/10 17:21:23;;;;;;;20.67;16.47;;;22.20;99.90;;;;;;6294818;22;20451;-85
2021/08/10 17:23:53;;;;;;;6.63;5.90;;;22.20;99.90;;;;;;6297757;22;20440;-86
2021/08/10 17:26:19;;;;;;;17.03;7.67;;;22.10;99.90;;;;;;6289206;22;20520;-86
2021/08/10 17:28:46;;;;;;;10.97;7.47;;;22.10;99.90;;;;;;6292544;22;20408;-85
2021/08/10 17:31:12;;;;;;;12.20;8.23;;;22.10;99.90;;;;;;6291969;22;20435;-86
2021/08/10 17:33:41;;;;;;;7.80;5.63;;;22.10;99.90;;;;;;6287025;22;20451;-86
2021/08/10 17:36:09;;;;;;;4.07;3.70;;;22.10;99.90;;;;;;6289989;22;20434;-86
2021/08/10 17:38:36;;;;;;;6.90;5.33;;;22.10;99.90;;;;;;6290706;22;20409;-86
2021/08/10 17:41:03;;;;;;;4.97;4.40;;;22.10;99.90;;;;;;6294729;22;20431;-86
2021/08/10 17:43:30;;;;;;;6.23;4.40;;;22.10;99.90;;;;;;6297893;22;20440;-86
2021/08/10 17:45:57;;;;;;;6.33;4.60;;;22.10;99.90;;;;;;6296783;22;20897;-86
2021/08/10 17:48:24;;;;;;;7.87;5.97;;;22.10;99.90;;;;;;6291111;22;20409;-86
2021/08/10 17:50:52;;;;;;;6.20;4.50;;;22.00;99.90;;;;;;6291627;22;20397;-86
2021/08/10 17:53:19;;;;;;;9.77;6.87;;;22.10;99.90;;;;;;6284753;22;20453;-86
2021/08/10 17:55:46;;;;;;;10.43;9.37;;;22.00;99.90;;;;;;6285682;22;20491;-85
2021/08/10 17:58:12;;;;;;;9.20;7.47;;;22.00;99.90;;;;;;6285912;22;20405;-85
2021/08/10 18:00:39;;;;;;;7.40;6.00;;;21.90;99.90;;;;;;6286207;22;20413;-86
2021/08/10 18:03:06;;;;;;;10.77;8.47;;;21.60;99.90;;;;;;6287933;22;20969;-86
2021/08/10 18:05:33;;;;;;;9.93;7.87;;;21.80;99.90;;;;;;6288332;22;20440;-86